sensor_id;sensor_type;location;lat;lon;timestamp;pressure;altitude;pressure_sealevel;temperature;humidity
34983;BME280;21187;50.976;13.720;2023-02-14T00:03:31;100275.41;;;8.48;59.75
34983;BME280;21187;50.976;13.720;2023-02-14T00:08:33;100261.63;;;8.49;59.42
34983;BME280;21187;50.976;13.720;2023-02-14T00:13:35;100262.66;;;8.54;59.85
34983;BME280;21187;50.976;13.720;2023-02-14T00:18:37;100263.25;;;8.51;59.87
34983;BME280;21187;50.976;13.720;2023-02-14T00:23:57;100274.28;;;8.54;59.84
34983;BME280;21187;50.976;13.720;2023-02-14T00:28:59;100267.59;;;8.46;59.79
34983;BME280;21187;50.976;13.720;2023-02-14T00:34:01;100271.44;;;8.35;59.89
34983;BME280;21187;50.976;13.720;2023-02-14T00:39:04;100267.66;;;8.36;59.61
34983;BME280;21187;50.976;13.720;2023-02-14T00:44:07;100262.59;;;8.29;60.32
34983;BME280;21187;50.976;13.720;2023-02-14T00:49:09;100263.97;;;8.27;60.54
34983;BME280;21187;50.976;13.720;2023-02-14T00:54:11;100253.78;;;8.19;60.04
34983;BME280;21187;50.976;13.720;2023-02-14T00:59:13;100249.06;;;8.00;60.68
34983;BME280;21187;50.976;13.720;2023-02-14T01:04:15;100247.44;;;7.99;60.81
34983;BME280;21187;50.976;13.720;2023-02-14T01:09:19;100252.75;;;8.09;60.15
34983;BME280;21187;50.976;13.720;2023-02-14T01:14:21;100259.31;;;7.98;60.46
34983;BME280;21187;50.976;13.720;2023-02-14T01:19:23;100250.38;;;8.03;60.29
34983;BME280;21187;50.976;13.720;2023-02-14T01:24:25;100243.59;;;8.10;60.00
34983;BME280;21187;50.976;13.720;2023-02-14T01:29:27;100240.81;;;8.15;59.49
34983;BME280;21187;50.976;13.720;2023-02-14T01:34:29;100243.25;;;8.17;59.30
34983;BME280;21187;50.976;13.720;2023-02-14T01:39:31;100244.06;;;8.18;59.52
34983;BME280;21187;50.976;13.720;2023-02-14T01:49:46;100225.75;;;8.14;58.94
34983;BME280;21187;50.976;13.720;2023-02-14T01:54:58;100218.97;;;8.17;58.99
34983;BME280;21187;50.976;13.720;2023-02-14T02:00:01;100233.25;;;8.18;58.98
34983;BME280;21187;50.976;13.720;2023-02-14T02:05:22;100227.06;;;8.17;59.25
34983;BME280;21187;50.976;13.720;2023-02-14T02:10:24;100219.47;;;8.19;58.76
34983;BME280;21187;50.976;13.720;2023-02-14T02:15:29;100212.72;;;8.22;58.58
34983;BME280;21187;50.976;13.720;2023-02-14T02:37:39;100212.16;;;8.25;58.34
34983;BME280;21187;50.976;13.720;2023-02-14T02:43:16;100208.44;;;8.15;58.93
34983;BME280;21187;50.976;13.720;2023-02-14T02:48:25;100204.19;;;8.09;58.28
34983;BME280;21187;50.976;13.720;2023-02-14T02:53:57;100210.97;;;8.07;58.34
34983;BME280;21187;50.976;13.720;2023-02-14T02:59:15;100202.53;;;8.13;58.08
34983;BME280;21187;50.976;13.720;2023-02-14T03:04:26;100184.44;;;8.14;58.08
34983;BME280;21187;50.976;13.720;2023-02-14T03:09:50;100196.84;;;8.15;58.46
34983;BME280;21187;50.976;13.720;2023-02-14T03:20:53;100195.59;;;8.02;58.21
34983;BME280;21187;50.976;13.720;2023-02-14T03:26:13;100202.66;;;7.98;58.49
34983;BME280;21187;50.976;13.720;2023-02-14T03:36:37;100203.63;;;8.12;58.19
34983;BME280;21187;50.976;13.720;2023-02-14T03:41:48;100194.75;;;8.07;58.26
34983;BME280;21187;50.976;13.720;2023-02-14T03:47:17;100194.13;;;7.86;58.70
34983;BME280;21187;50.976;13.720;2023-02-14T03:52:16;100191.50;;;7.75;59.13
34983;BME280;21187;50.976;13.720;2023-02-14T03:57:29;100191.13;;;7.87;58.38
34983;BME280;21187;50.976;13.720;2023-02-14T04:02:36;100183.25;;;7.96;58.59
34983;BME280;21187;50.976;13.720;2023-02-14T04:07:49;100189.69;;;8.00;58.34
34983;BME280;21187;50.976;13.720;2023-02-14T04:12:52;100203.25;;;7.50;60.59
34983;BME280;21187;50.976;13.720;2023-02-14T04:17:54;100209.66;;;7.99;58.59
34983;BME280;21187;50.976;13.720;2023-02-14T04:23:14;100192.34;;;8.05;58.61
34983;BME280;21187;50.976;13.720;2023-02-14T04:28:16;100188.63;;;8.01;58.20
34983;BME280;21187;50.976;13.720;2023-02-14T04:33:18;100193.56;;;7.89;59.22
34983;BME280;21187;50.976;13.720;2023-02-14T04:38:20;100195.53;;;7.78;58.81
34983;BME280;21187;50.976;13.720;2023-02-14T04:43:22;100178.81;;;7.76;58.50
34983;BME280;21187;50.976;13.720;2023-02-14T04:48:24;100187.75;;;7.71;58.57
34983;BME280;21187;50.976;13.720;2023-02-14T04:53:26;100176.09;;;7.76;58.99
34983;BME280;21187;50.976;13.720;2023-02-14T04:58:27;100180.66;;;7.80;58.51
34983;BME280;21187;50.976;13.720;2023-02-14T05:03:29;100168.22;;;7.85;58.28
34983;BME280;21187;50.976;13.720;2023-02-14T05:08:31;100175.53;;;7.84;58.72
34983;BME280;21187;50.976;13.720;2023-02-14T05:13:33;100174.56;;;7.70;58.50
34983;BME280;21187;50.976;13.720;2023-02-14T05:18:35;100181.00;;;7.74;58.37
34983;BME280;21187;50.976;13.720;2023-02-14T05:23:37;100178.00;;;7.75;58.80
34983;BME280;21187;50.976;13.720;2023-02-14T05:28:39;100171.72;;;7.85;58.21
34983;BME280;21187;50.976;13.720;2023-02-14T05:33:41;100170.47;;;7.77;58.42
34983;BME280;21187;50.976;13.720;2023-02-14T05:38:43;100161.28;;;7.73;57.98
34983;BME280;21187;50.976;13.720;2023-02-14T05:43:45;100163.75;;;7.70;58.09
34983;BME280;21187;50.976;13.720;2023-02-14T05:48:47;100174.31;;;7.66;57.97
34983;BME280;21187;50.976;13.720;2023-02-14T05:53:49;100162.53;;;7.52;58.60
34983;BME280;21187;50.976;13.720;2023-02-14T05:58:51;100165.50;;;7.50;58.76
34983;BME280;21187;50.976;13.720;2023-02-14T06:03:52;100167.44;;;7.44;58.44
34983;BME280;21187;50.976;13.720;2023-02-14T06:08:54;100165.84;;;7.38;58.59
34983;BME280;21187;50.976;13.720;2023-02-14T06:13:56;100163.91;;;6.99;59.81
34983;BME280;21187;50.976;13.720;2023-02-14T06:18:58;100167.19;;;6.80;60.12
34983;BME280;21187;50.976;13.720;2023-02-14T06:24:00;100153.63;;;7.11;58.80
34983;BME280;21187;50.976;13.720;2023-02-14T06:29:03;100159.75;;;7.22;58.70
34983;BME280;21187;50.976;13.720;2023-02-14T06:34:05;100170.78;;;7.26;58.39
34983;BME280;21187;50.976;13.720;2023-02-14T06:39:06;100167.56;;;7.24;58.33
34983;BME280;21187;50.976;13.720;2023-02-14T06:44:08;100183.09;;;7.37;58.41
34983;BME280;21187;50.976;13.720;2023-02-14T06:49:11;100180.06;;;7.49;57.81
34983;BME280;21187;50.976;13.720;2023-02-14T06:54:13;100187.31;;;7.59;57.79
34983;BME280;21187;50.976;13.720;2023-02-14T06:59:14;100181.84;;;7.64;58.05
34983;BME280;21187;50.976;13.720;2023-02-14T07:04:16;100188.84;;;7.70;57.73
34983;BME280;21187;50.976;13.720;2023-02-14T07:09:19;100179.66;;;7.71;57.70
34983;BME280;21187;50.976;13.720;2023-02-14T07:14:21;100174.91;;;7.58;57.48
34983;BME280;21187;50.976;13.720;2023-02-14T07:19:23;100180.00;;;7.59;57.68
34983;BME280;21187;50.976;13.720;2023-02-14T07:24:25;100167.84;;;7.62;57.76
34983;BME280;21187;50.976;13.720;2023-02-14T07:29:27;100167.28;;;7.65;57.52
34983;BME280;21187;50.976;13.720;2023-02-14T07:34:29;100173.19;;;7.72;57.77
34983;BME280;21187;50.976;13.720;2023-02-14T07:39:31;100176.97;;;7.71;57.70
34983;BME280;21187;50.976;13.720;2023-02-14T07:44:33;100168.72;;;7.52;57.54
34983;BME280;21187;50.976;13.720;2023-02-14T07:49:35;100164.16;;;7.53;57.83
34983;BME280;21187;50.976;13.720;2023-02-14T07:54:37;100164.16;;;7.53;57.85
34983;BME280;21187;50.976;13.720;2023-02-14T07:59:39;100167.13;;;7.51;57.83
34983;BME280;21187;50.976;13.720;2023-02-14T08:04:41;100155.53;;;7.50;57.81
34983;BME280;21187;50.976;13.720;2023-02-14T08:09:43;100165.81;;;7.43;57.92
34983;BME280;21187;50.976;13.720;2023-02-14T08:14:45;100170.97;;;7.40;57.95
34983;BME280;21187;50.976;13.720;2023-02-14T08:19:46;100168.50;;;7.48;57.75
34983;BME280;21187;50.976;13.720;2023-02-14T08:24:48;100173.81;;;7.59;57.72
34983;BME280;21187;50.976;13.720;2023-02-14T08:29:50;100178.06;;;7.65;57.54
34983;BME280;21187;50.976;13.720;2023-02-14T08:34:52;100176.22;;;7.60;57.68
34983;BME280;21187;50.976;13.720;2023-02-14T08:39:54;100180.81;;;7.60;57.68
34983;BME280;21187;50.976;13.720;2023-02-14T08:44:56;100178.69;;;7.57;57.86
34983;BME280;21187;50.976;13.720;2023-02-14T08:49:58;100177.59;;;7.58;57.67
34983;BME280;21187;50.976;13.720;2023-02-14T08:55:00;100169.28;;;7.49;57.38
34983;BME280;21187;50.976;13.720;2023-02-14T09:00:04;100181.50;;;7.36;58.13
34983;BME280;21187;50.976;13.720;2023-02-14T09:05:07;100168.53;;;7.43;57.92
34983;BME280;21187;50.976;13.720;2023-02-14T09:10:11;100177.88;;;7.56;57.57
34983;BME280;21187;50.976;13.720;2023-02-14T09:15:14;100178.13;;;7.55;58.14
34983;BME280;21187;50.976;13.720;2023-02-14T09:20:19;100187.75;;;7.71;58.00
34983;BME280;21187;50.976;13.720;2023-02-14T09:25:21;100182.28;;;7.81;57.83
34983;BME280;21187;50.976;13.720;2023-02-14T09:30:23;100188.13;;;7.94;57.03
34983;BME280;21187;50.976;13.720;2023-02-14T09:35:25;100185.34;;;8.04;56.88
34983;BME280;21187;50.976;13.720;2023-02-14T09:40:27;100189.38;;;8.07;57.37
34983;BME280;21187;50.976;13.720;2023-02-14T09:45:31;100183.16;;;8.06;57.34
34983;BME280;21187;50.976;13.720;2023-02-14T09:50:39;100189.53;;;8.15;57.41
34983;BME280;21187;50.976;13.720;2023-02-14T10:11:37;100192.72;;;8.23;57.65
34983;BME280;21187;50.976;13.720;2023-02-14T10:22:01;100182.72;;;8.23;57.12
34983;BME280;21187;50.976;13.720;2023-02-14T10:27:46;100179.78;;;8.25;57.31
34983;BME280;21187;50.976;13.720;2023-02-14T10:32:59;100183.88;;;8.17;57.14
34983;BME280;21187;50.976;13.720;2023-02-14T11:04:31;100178.25;;;8.13;57.40
34983;BME280;21187;50.976;13.720;2023-02-14T11:09:33;100177.66;;;8.16;57.02
34983;BME280;21187;50.976;13.720;2023-02-14T11:14:37;100172.22;;;8.22;56.93
34983;BME280;21187;50.976;13.720;2023-02-14T11:19:39;100172.75;;;8.24;56.69
34983;BME280;21187;50.976;13.720;2023-02-14T11:24:41;100171.38;;;8.26;56.99
34983;BME280;21187;50.976;13.720;2023-02-14T11:29:45;100158.72;;;8.22;56.35
34983;BME280;21187;50.976;13.720;2023-02-14T11:34:58;100160.91;;;8.20;56.73
34983;BME280;21187;50.976;13.720;2023-02-14T11:40:01;100154.16;;;8.22;57.03
34983;BME280;21187;50.976;13.720;2023-02-14T11:45:05;100151.13;;;8.29;56.85
34983;BME280;21187;50.976;13.720;2023-02-14T11:50:21;100151.84;;;8.35;56.76
34983;BME280;21187;50.976;13.720;2023-02-14T11:55:28;100143.53;;;8.31;56.39
34983;BME280;21187;50.976;13.720;2023-02-14T12:00:30;100139.75;;;8.32;56.14
34983;BME280;21187;50.976;13.720;2023-02-14T12:05:42;100132.38;;;8.38;56.42
34983;BME280;21187;50.976;13.720;2023-02-14T12:11:00;100121.28;;;8.39;56.38
34983;BME280;21187;50.976;13.720;2023-02-14T12:16:02;100120.75;;;8.42;55.90
34983;BME280;21187;50.976;13.720;2023-02-14T12:26:37;100104.28;;;8.39;56.25
34983;BME280;21187;50.976;13.720;2023-02-14T12:31:42;100097.53;;;8.41;56.27
34983;BME280;21187;50.976;13.720;2023-02-14T12:49:15;100074.00;;;8.42;56.10
34983;BME280;21187;50.976;13.720;2023-02-14T12:59:19;100062.78;;;8.59;56.42
34983;BME280;21187;50.976;13.720;2023-02-14T13:04:43;100058.31;;;8.68;55.72
34983;BME280;21187;50.976;13.720;2023-02-14T13:20:29;100046.25;;;8.85;56.16
34983;BME280;21187;50.976;13.720;2023-02-14T13:25:38;100038.06;;;8.90;55.84
34983;BME280;21187;50.976;13.720;2023-02-14T13:30:43;100042.16;;;8.87;56.09
34983;BME280;21187;50.976;13.720;2023-02-14T13:35:45;100035.84;;;8.92;56.17
34983;BME280;21187;50.976;13.720;2023-02-14T13:40:48;100035.84;;;8.92;55.44
34983;BME280;21187;50.976;13.720;2023-02-14T13:45:53;100026.59;;;8.98;55.90
34983;BME280;21187;50.976;13.720;2023-02-14T13:51:01;100034.03;;;9.06;55.60
34983;BME280;21187;50.976;13.720;2023-02-14T14:17:28;100012.31;;;9.11;55.37
34983;BME280;21187;50.976;13.720;2023-02-14T14:22:30;100014.34;;;9.20;55.64
34983;BME280;21187;50.976;13.720;2023-02-14T14:27:40;99998.97;;;9.20;55.80
34983;BME280;21187;50.976;13.720;2023-02-14T14:32:43;100004.38;;;9.20;55.85
34983;BME280;21187;50.976;13.720;2023-02-14T14:37:57;99991.88;;;9.05;55.81
34983;BME280;21187;50.976;13.720;2023-02-14T14:43:05;99993.75;;;9.24;55.53
34983;BME280;21187;50.976;13.720;2023-02-14T14:48:10;99983.88;;;9.33;55.44
34983;BME280;21187;50.976;13.720;2023-02-14T14:53:42;99976.16;;;9.40;55.61
34983;BME280;21187;50.976;13.720;2023-02-14T14:58:46;99973.78;;;9.53;55.38
34983;BME280;21187;50.976;13.720;2023-02-14T15:03:48;99965.47;;;9.63;55.13
34983;BME280;21187;50.976;13.720;2023-02-14T15:08:50;99957.88;;;9.65;54.93
34983;BME280;21187;50.976;13.720;2023-02-14T15:13:52;99943.94;;;9.58;55.15
34983;BME280;21187;50.976;13.720;2023-02-14T15:18:59;99945.16;;;9.52;54.97
34983;BME280;21187;50.976;13.720;2023-02-14T15:24:12;99948.53;;;9.43;54.99
34983;BME280;21187;50.976;13.720;2023-02-14T15:29:33;99934.31;;;9.38;55.00
34983;BME280;21187;50.976;13.720;2023-02-14T15:34:35;99939.09;;;9.27;55.04
34983;BME280;21187;50.976;13.720;2023-02-14T15:39:47;99928.97;;;9.19;55.44
34983;BME280;21187;50.976;13.720;2023-02-14T15:45:12;99929.63;;;9.10;55.25
34983;BME280;21187;50.976;13.720;2023-02-14T15:50:18;99930.84;;;9.04;55.07
34983;BME280;21187;50.976;13.720;2023-02-14T15:55:24;99922.88;;;8.94;55.28
34983;BME280;21187;50.976;13.720;2023-02-14T16:00:27;99931.16;;;8.83;55.66
34983;BME280;21187;50.976;13.720;2023-02-14T16:05:29;99927.50;;;8.74;55.48
34983;BME280;21187;50.976;13.720;2023-02-14T16:10:36;99926.88;;;8.63;55.00
34983;BME280;21187;50.976;13.720;2023-02-14T16:15:43;99933.50;;;8.52;55.11
34983;BME280;21187;50.976;13.720;2023-02-14T16:26:19;99934.22;;;8.20;55.58
34983;BME280;21187;50.976;13.720;2023-02-14T16:31:20;99931.56;;;8.14;55.64
34983;BME280;21187;50.976;13.720;2023-02-14T16:36:31;99923.53;;;8.09;55.07
34983;BME280;21187;50.976;13.720;2023-02-14T16:41:33;99927.38;;;8.03;54.90
34983;BME280;21187;50.976;13.720;2023-02-14T16:46:35;99934.75;;;7.97;55.33
34983;BME280;21187;50.976;13.720;2023-02-14T16:51:40;99929.66;;;7.96;55.12
34983;BME280;21187;50.976;13.720;2023-02-14T16:57:00;99927.56;;;7.88;55.41
34983;BME280;21187;50.976;13.720;2023-02-14T17:02:03;99930.97;;;7.74;55.38
34983;BME280;21187;50.976;13.720;2023-02-14T17:07:05;99916.09;;;7.53;55.10
34983;BME280;21187;50.976;13.720;2023-02-14T17:12:11;99917.00;;;7.43;55.38
34983;BME280;21187;50.976;13.720;2023-02-14T17:17:17;99913.91;;;7.30;55.35
34983;BME280;21187;50.976;13.720;2023-02-14T17:22:19;99906.28;;;7.08;55.19
34983;BME280;21187;50.976;13.720;2023-02-14T17:27:21;99911.63;;;6.84;55.43
34983;BME280;21187;50.976;13.720;2023-02-14T17:32:23;99905.28;;;6.25;57.02
34983;BME280;21187;50.976;13.720;2023-02-14T17:37:24;99902.66;;;6.59;55.85
34983;BME280;21187;50.976;13.720;2023-02-14T17:42:26;99901.06;;;6.53;55.83
34983;BME280;21187;50.976;13.720;2023-02-14T17:47:28;99896.88;;;6.37;55.81
34983;BME280;21187;50.976;13.720;2023-02-14T17:52:30;99888.63;;;6.18;56.06
34983;BME280;21187;50.976;13.720;2023-02-14T17:57:33;99884.91;;;6.13;55.92
34983;BME280;21187;50.976;13.720;2023-02-14T18:02:35;99875.56;;;5.95;56.02
34983;BME280;21187;50.976;13.720;2023-02-14T18:07:38;99886.06;;;5.92;56.60
34983;BME280;21187;50.976;13.720;2023-02-14T18:12:40;99880.13;;;5.95;55.78
34983;BME280;21187;50.976;13.720;2023-02-14T18:17:42;99882.28;;;5.93;55.88
34983;BME280;21187;50.976;13.720;2023-02-14T18:22:44;99880.41;;;5.88;55.94
34983;BME280;21187;50.976;13.720;2023-02-14T18:27:46;99883.41;;;5.87;55.97
34983;BME280;21187;50.976;13.720;2023-02-14T18:32:49;99880.69;;;5.92;56.00
34983;BME280;21187;50.976;13.720;2023-02-14T18:37:51;99862.66;;;5.92;56.18
34983;BME280;21187;50.976;13.720;2023-02-14T18:42:53;99860.78;;;6.03;55.92
34983;BME280;21187;50.976;13.720;2023-02-14T18:47:55;99867.19;;;6.07;56.00
34983;BME280;21187;50.976;13.720;2023-02-14T18:52:57;99858.84;;;6.09;55.58
34983;BME280;21187;50.976;13.720;2023-02-14T18:57:59;99850.50;;;6.10;55.67
34983;BME280;21187;50.976;13.720;2023-02-14T19:03:01;99847.81;;;6.10;55.21
34983;BME280;21187;50.976;13.720;2023-02-14T19:08:03;99844.06;;;6.06;55.41
34983;BME280;21187;50.976;13.720;2023-02-14T19:13:06;99844.66;;;5.93;55.31
34983;BME280;21187;50.976;13.720;2023-02-14T19:18:08;99832.84;;;5.89;55.75
34983;BME280;21187;50.976;13.720;2023-02-14T19:23:09;99829.34;;;5.88;55.42
34983;BME280;21187;50.976;13.720;2023-02-14T19:28:11;99828.00;;;5.86;55.42
34983;BME280;21187;50.976;13.720;2023-02-14T19:33:14;99828.31;;;5.79;55.43
34983;BME280;21187;50.976;13.720;2023-02-14T19:38:15;99823.78;;;5.69;55.37
34983;BME280;21187;50.976;13.720;2023-02-14T19:43:18;99827.63;;;5.53;55.79
34983;BME280;21187;50.976;13.720;2023-02-14T19:48:20;99829.22;;;5.54;55.81
34983;BME280;21187;50.976;13.720;2023-02-14T19:53:22;99824.94;;;5.53;55.42
34983;BME280;21187;50.976;13.720;2023-02-14T19:58:23;99823.88;;;5.48;55.76
34983;BME280;21187;50.976;13.720;2023-02-14T20:03:26;99820.69;;;5.46;55.86
34983;BME280;21187;50.976;13.720;2023-02-14T20:08:28;99822.84;;;5.34;55.90
34983;BME280;21187;50.976;13.720;2023-02-14T20:13:30;99821.78;;;5.30;55.76
34983;BME280;21187;50.976;13.720;2023-02-14T20:18:33;99810.00;;;5.26;55.93
34983;BME280;21187;50.976;13.720;2023-02-14T20:23:35;99811.88;;;5.25;55.60
34983;BME280;21187;50.976;13.720;2023-02-14T20:28:37;99808.34;;;5.30;55.48
34983;BME280;21187;50.976;13.720;2023-02-14T20:33:39;99803.00;;;5.30;55.85
34983;BME280;21187;50.976;13.720;2023-02-14T20:38:41;99798.97;;;5.27;55.78
34983;BME280;21187;50.976;13.720;2023-02-14T20:43:43;99801.13;;;5.25;55.81
34983;BME280;21187;50.976;13.720;2023-02-14T20:48:45;99791.19;;;5.21;55.69
34983;BME280;21187;50.976;13.720;2023-02-14T20:53:47;99786.38;;;5.23;55.81
34983;BME280;21187;50.976;13.720;2023-02-14T20:58:49;99785.03;;;5.25;55.81
34983;BME280;21187;50.976;13.720;2023-02-14T21:03:52;99779.91;;;5.24;55.53
34983;BME280;21187;50.976;13.720;2023-02-14T21:08:56;99789.06;;;5.23;55.76
34983;BME280;21187;50.976;13.720;2023-02-14T21:13:59;99784.50;;;5.13;55.89
34983;BME280;21187;50.976;13.720;2023-02-14T21:19:01;99785.06;;;5.10;55.50
34983;BME280;21187;50.976;13.720;2023-02-14T21:24:13;99777.53;;;5.12;56.24
34983;BME280;21187;50.976;13.720;2023-02-14T21:29:15;99774.59;;;5.13;55.49
34983;BME280;21187;50.976;13.720;2023-02-14T21:34:17;99769.00;;;4.94;55.62
34983;BME280;21187;50.976;13.720;2023-02-14T21:39:19;99764.97;;;4.81;55.77
34983;BME280;21187;50.976;13.720;2023-02-14T21:44:26;99768.22;;;4.78;55.76
34983;BME280;21187;50.976;13.720;2023-02-14T21:49:47;99765.03;;;4.66;55.76
34983;BME280;21187;50.976;13.720;2023-02-14T21:55:07;99758.06;;;4.55;56.29
34983;BME280;21187;50.976;13.720;2023-02-14T22:00:10;99747.88;;;4.41;56.10
34983;BME280;21187;50.976;13.720;2023-02-14T22:05:12;99740.91;;;4.40;55.74
34983;BME280;21187;50.976;13.720;2023-02-14T22:10:14;99736.59;;;4.34;55.83
34983;BME280;21187;50.976;13.720;2023-02-14T22:15:16;99733.94;;;4.29;56.12
34983;BME280;21187;50.976;13.720;2023-02-14T22:20:19;99734.75;;;4.29;55.47
34983;BME280;21187;50.976;13.720;2023-02-14T22:25:21;99733.13;;;4.28;55.47
34983;BME280;21187;50.976;13.720;2023-02-14T22:30:23;99723.75;;;4.21;55.57
34983;BME280;21187;50.976;13.720;2023-02-14T22:35:25;99727.53;;;4.14;55.43
34983;BME280;21187;50.976;13.720;2023-02-14T22:40:27;99729.38;;;4.09;55.84
34983;BME280;21187;50.976;13.720;2023-02-14T22:45:29;99724.28;;;4.12;55.80
34983;BME280;21187;50.976;13.720;2023-02-14T22:50:31;99731.00;;;4.10;56.20
34983;BME280;21187;50.976;13.720;2023-02-14T22:55:36;99722.41;;;4.03;55.52
34983;BME280;21187;50.976;13.720;2023-02-14T23:00:37;99720.53;;;3.98;55.60
34983;BME280;21187;50.976;13.720;2023-02-14T23:05:39;99715.72;;;3.90;55.65
34983;BME280;21187;50.976;13.720;2023-02-14T23:10:41;99716.22;;;3.87;55.64
34983;BME280;21187;50.976;13.720;2023-02-14T23:15:44;99709.78;;;3.88;55.51
34983;BME280;21187;50.976;13.720;2023-02-14T23:21:13;99709.28;;;3.80;56.18
34983;BME280;21187;50.976;13.720;2023-02-14T23:26:33;99719.16;;;3.80;55.52
34983;BME280;21187;50.976;13.720;2023-02-14T23:31:37;99701.75;;;3.82;56.43
34983;BME280;21187;50.976;13.720;2023-02-14T23:36:40;99704.97;;;3.85;56.17
34983;BME280;21187;50.976;13.720;2023-02-14T23:41:41;99694.78;;;3.87;56.22
34983;BME280;21187;50.976;13.720;2023-02-14T23:46:54;99692.66;;;3.89;55.75
34983;BME280;21187;50.976;13.720;2023-02-14T23:51:57;99687.28;;;3.83;55.92
34983;BME280;21187;50.976;13.720;2023-02-14T23:56:59;99686.75;;;3.81;55.81
